Branca De Sagres — CUOV5 — position and weather

sailwx.info

Track history (hours):
 
Tides and Currents Weather Stations Pressure Air Temp Water Temp Dewpoint Dewpoint Depression Visibility Wind Speed Wind Dir Waves Ship Positions

Branca De Sagres

Last reported at 2018-Jan-23 05:56 UTC. Time now 2018-Jan-23 18:09 UTC.
Position N 38°26' W 009°07'.

Length 18 m.

MMSI: 204209000.

Date/timePositionNaut miles runAvg speedWind from/ knotsBaromVisibWave heightAir tempDewpointWater temp
2018-Jan-23 05:56N 38°26' W 009°07'0 0.3
2018-Jan-23 05:30N 38°26' W 009°07'1 2.3
2018-Jan-23 05:00N 38°25' W 009°08'5 8.7
2018-Jan-23 04:25N 38°22' W 009°12'3 8.3
2018-Jan-23 04:00N 38°20' W 009°15'4 8.4
2018-Jan-23 03:29N 38°16' W 009°19'2 0.1
2018-Jan-22 13:07N 38°15' W 009°20'2 8.6
2018-Jan-22 12:54N 38°16' W 009°19'3 8.2
2018-Jan-22 12:30N 38°19' W 009°16'10 8.3
2018-Jan-22 11:19N 38°26' W 009°07'1 1.0
2018-Jan-22 10:45N 38°26' W 009°07'0 0.0
2018-Jan-20 12:56N 38°26' W 009°07'0 0.0
2018-Jan-20 12:30N 38°26' W 009°07'0 0.2
2018-Jan-20 12:00N 38°26' W 009°07'3 6.0
2018-Jan-20 11:29N 38°24' W 009°08'4 9.1
2018-Jan-20 11:00N 38°21' W 009°12'4 8.8
2018-Jan-20 10:30N 38°18' W 009°17'4 8.7
2018-Jan-20 10:00N 38°15' W 009°21'4 6.3
2018-Jan-20 09:25N 38°12' W 009°24'2 4.6
2018-Jan-20 08:58N 38°12' W 009°27'2 4.3
2018-Jan-20 08:28N 38°09' W 009°27'2 4.4
2018-Jan-20 08:00N 38°08' W 009°29'2 3.5
2018-Jan-20 07:28N 38°06' W 009°30'2 2.0
2018-Jan-20 06:39N 38°07' W 009°28'2 0.8
2018-Jan-20 04:33N 38°08' W 009°27'0 1.0
2018-Jan-20 04:27N 38°08' W 009°27'1 0.9
2018-Jan-20 03:47N 38°09' W 009°26'0 0.8
2018-Jan-20 03:29N 38°09' W 009°26'2 0.8
2018-Jan-20 00:52N 38°11' W 009°25'0 1.0
2018-Jan-20 00:28N 38°11' W 009°25'1 0.9
2018-Jan-19 23:51N 38°12' W 009°24'0 0.9
2018-Jan-19 23:30N 38°12' W 009°24'0 0.8
2018-Jan-19 23:00N 38°12' W 009°23'0 0.8
2018-Jan-19 22:26N 38°12' W 009°23'0 0.8
2018-Jan-19 21:58N 38°12' W 009°22'0 0.7
2018-Jan-19 21:30N 38°13' W 009°22'0 0.3
2018-Jan-19 21:00N 38°13' W 009°22'0 0.3
2018-Jan-19 20:30N 38°13' W 009°22'4 8.2
2018-Jan-19 20:00N 38°16' W 009°19'4 8.7
2018-Jan-19 19:29N 38°19' W 009°15'4 8.6
2018-Jan-19 19:00N 38°22' W 009°11'4 8.7
2018-Jan-19 18:30N 38°25' W 009°07'1 1.9
2018-Jan-19 18:00N 38°26' W 009°07'0 0.0
2018-Jan-19 14:47N 38°26' W 009°07'0 0.0
2018-Jan-18 14:39N 38°26' W 009°07'0 0.0
2018-Jan-18 14:31N 38°26' W 009°07'0 0.2
2018-Jan-18 14:00N 38°26' W 009°07'3 5.1
2018-Jan-18 13:30N 38°24' W 009°08'4 8.8
2018-Jan-18 13:01N 38°21' W 009°12'4 8.4
2018-Jan-18 12:30N 38°18' W 009°16'4 7.9
2018-Jan-18 12:00N 38°15' W 009°19'3 6.8
2018-Jan-18 11:30N 38°13' W 009°23'2 4.1
2018-Jan-18 11:00N 38°12' W 009°25'2 3.6
2018-Jan-18 10:29N 38°11' W 009°27'2 4.3
2018-Jan-18 10:01N 38°09' W 009°28'2 4.6
2018-Jan-18 09:31N 38°07' W 009°30'1 1.3
2018-Jan-18 08:59N 38°07' W 009°29'0 0.7
2018-Jan-18 08:29N 38°07' W 009°29'1 0.7
2018-Jan-18 07:45N 38°08' W 009°29'2 0.9
2018-Jan-18 05:37N 38°09' W 009°27'0 0.9
2018-Jan-18 05:21N 38°09' W 009°27'1 1.0
2018-Jan-18 04:45N 38°10' W 009°27'2 0.9
2018-Jan-18 02:27N 38°11' W 009°25'  
Track history (hours):
 
Tides and Currents Weather Stations Pressure Air Temp Water Temp Dewpoint Dewpoint Depression Visibility Wind Speed Wind Dir Waves Ship Positions

Branca De Sagres

Last reported at 2018-Jan-23 05:56 UTC. Time now 2018-Jan-23 18:09 UTC.
Position N 38°26' W 009°07'.

Length 18 m.

MMSI: 204209000.

Date/timePositionNaut miles runAvg speedWind from/ knotsBaromVisibWave heightAir tempDewpointWater temp
2018-Jan-23 05:56N 38°26' W 009°07'0 0.3
2018-Jan-23 05:30N 38°26' W 009°07'1 2.3
2018-Jan-23 05:00N 38°25' W 009°08'5 8.7
2018-Jan-23 04:25N 38°22' W 009°12'3 8.3
2018-Jan-23 04:00N 38°20' W 009°15'4 8.4
2018-Jan-23 03:29N 38°16' W 009°19'2 0.1
2018-Jan-22 13:07N 38°15' W 009°20'2 8.6
2018-Jan-22 12:54N 38°16' W 009°19'3 8.2
2018-Jan-22 12:30N 38°19' W 009°16'10 8.3
2018-Jan-22 11:19N 38°26' W 009°07'1 1.0
2018-Jan-22 10:45N 38°26' W 009°07'0 0.0
2018-Jan-20 12:56N 38°26' W 009°07'0 0.0
2018-Jan-20 12:30N 38°26' W 009°07'0 0.2
2018-Jan-20 12:00N 38°26' W 009°07'3 6.0
2018-Jan-20 11:29N 38°24' W 009°08'4 9.1
2018-Jan-20 11:00N 38°21' W 009°12'4 8.8
2018-Jan-20 10:30N 38°18' W 009°17'4 8.7
2018-Jan-20 10:00N 38°15' W 009°21'4 6.3
2018-Jan-20 09:25N 38°12' W 009°24'2 4.6
2018-Jan-20 08:58N 38°12' W 009°27'2 4.3
2018-Jan-20 08:28N 38°09' W 009°27'2 4.4
2018-Jan-20 08:00N 38°08' W 009°29'2 3.5
2018-Jan-20 07:28N 38°06' W 009°30'2 2.0
2018-Jan-20 06:39N 38°07' W 009°28'2 0.8
2018-Jan-20 04:33N 38°08' W 009°27'0 1.0
2018-Jan-20 04:27N 38°08' W 009°27'1 0.9
2018-Jan-20 03:47N 38°09' W 009°26'0 0.8
2018-Jan-20 03:29N 38°09' W 009°26'2 0.8
2018-Jan-20 00:52N 38°11' W 009°25'0 1.0
2018-Jan-20 00:28N 38°11' W 009°25'1 0.9
2018-Jan-19 23:51N 38°12' W 009°24'0 0.9
2018-Jan-19 23:30N 38°12' W 009°24'0 0.8
2018-Jan-19 23:00N 38°12' W 009°23'0 0.8
2018-Jan-19 22:26N 38°12' W 009°23'0 0.8
2018-Jan-19 21:58N 38°12' W 009°22'0 0.7
2018-Jan-19 21:30N 38°13' W 009°22'0 0.3
2018-Jan-19 21:00N 38°13' W 009°22'0 0.3
2018-Jan-19 20:30N 38°13' W 009°22'4 8.2
2018-Jan-19 20:00N 38°16' W 009°19'4 8.7
2018-Jan-19 19:29N 38°19' W 009°15'4 8.6
2018-Jan-19 19:00N 38°22' W 009°11'4 8.7
2018-Jan-19 18:30N 38°25' W 009°07'1 1.9
2018-Jan-19 18:00N 38°26' W 009°07'0 0.0
2018-Jan-19 14:47N 38°26' W 009°07'0 0.0
2018-Jan-18 14:39N 38°26' W 009°07'0 0.0
2018-Jan-18 14:31N 38°26' W 009°07'0 0.2
2018-Jan-18 14:00N 38°26' W 009°07'3 5.1
2018-Jan-18 13:30N 38°24' W 009°08'4 8.8
2018-Jan-18 13:01N 38°21' W 009°12'4 8.4
2018-Jan-18 12:30N 38°18' W 009°16'4 7.9
2018-Jan-18 12:00N 38°15' W 009°19'3 6.8
2018-Jan-18 11:30N 38°13' W 009°23'2 4.1
2018-Jan-18 11:00N 38°12' W 009°25'2 3.6
2018-Jan-18 10:29N 38°11' W 009°27'2 4.3
2018-Jan-18 10:01N 38°09' W 009°28'2 4.6
2018-Jan-18 09:31N 38°07' W 009°30'1 1.3
2018-Jan-18 08:59N 38°07' W 009°29'0 0.7
2018-Jan-18 08:29N 38°07' W 009°29'1 0.7
2018-Jan-18 07:45N 38°08' W 009°29'2 0.9
2018-Jan-18 05:37N 38°09' W 009°27'0 0.9
2018-Jan-18 05:21N 38°09' W 009°27'1 1.0
2018-Jan-18 04:45N 38°10' W 009°27'2 0.9
2018-Jan-18 02:27N 38°11' W 009°25'  

Dump ship's entire track history